Terminal Aerodrome Forecast
Issued by NWS

Home | Current Version | Previous Version | Text Only | Print | Product List | Glossary On
Versions: 1 2 3 4 5 6 7 8 9 10 11 12 13 14 15
000
FTUS42 KGSP 241129
TAFGMU
TAF
KGMU 241129Z 2412/2512 VRB02KT 6SM BR FEW002 FEW250
      TEMPO 2412/2413 3SM BR
     FM241400 20003KT P6SM FEW250
     FM241900 21006KT P6SM SCT060
     FM250300 VRB02KT P6SM SCT070=

USA.gov is the U.S. government's official web portal to all federal, state and local government web resources and services.